Time;durP1;ratioP1;P1;durP2;ratioP2;P2;SDS_P1;SDS_P2;PMS_P1;PMS_P2;Temp;Humidity;BMP_temperature;BMP_pressure;BME280_temperature;BME280_humidity;BME280_pressure;Samples;Min_cycle;Max_cycle;Signal;HPM_P1;HPM_P2
2021/10/22 00:00:25;;;;;;;12.45;2.20;;;7.10;99.90;;;;;;5110612;27;20164;-77
2021/10/22 00:02:51;;;;;;;14.88;2.20;;;7.00;99.90;;;;;;5095117;27;20534;-77
2021/10/22 00:05:20;;;;;;;13.38;2.40;;;7.00;99.90;;;;;;5110506;27;20062;-78
2021/10/22 00:07:46;;;;;;;10.63;1.83;;;7.00;99.90;;;;;;5110134;27;20035;-78
2021/10/22 00:10:12;;;;;;;12.93;1.88;;;6.90;99.90;;;;;;5077210;27;20035;-77
2021/10/22 00:12:38;;;;;;;12.65;2.05;;;7.00;99.90;;;;;;5112191;27;20366;-77
2021/10/22 00:15:09;;;;;;;10.75;1.98;;;7.00;99.90;;;;;;5097120;28;20047;-77
2021/10/22 00:17:36;;;;;;;;;;;7.00;99.90;;;;;;5091760;28;20584;-78
2021/10/22 00:20:09;;;;;;;12.93;2.50;;;7.00;99.90;;;;;;5092089;28;19923;-77
2021/10/22 00:22:35;;;;;;;13.25;2.30;;;7.00;99.90;;;;;;5082884;27;20649;-78
2021/10/22 00:25:01;;;;;;;12.10;2.03;;;7.00;99.90;;;;;;5079045;27;20042;-82
2021/10/22 00:27:26;;;;;;;13.43;2.28;;;7.00;99.90;;;;;;5078718;27;20073;-82
2021/10/22 00:29:52;;;;;;;10.25;2.10;;;7.10;99.90;;;;;;5075200;28;20035;-78
2021/10/22 00:32:18;;;;;;;9.57;2.05;;;7.10;99.90;;;;;;5074618;27;20051;-77
2021/10/22 00:34:44;;;;;;;13.45;2.22;;;7.20;99.90;;;;;;5093863;27;20054;-76
2021/10/22 00:37:09;;;;;;;14.48;2.85;;;7.30;99.90;;;;;;5061652;27;20046;-78
2021/10/22 00:39:35;;;;;;;13.07;2.05;;;7.20;99.90;;;;;;5092144;27;20043;-77
2021/10/22 00:42:07;;;;;;;8.50;1.90;;;7.30;99.90;;;;;;5094809;27;20043;-78
2021/10/22 00:44:33;;;;;;;10.13;2.28;;;7.30;99.90;;;;;;5094511;27;20035;-81
2021/10/22 00:46:59;;;;;;;12.45;2.17;;;7.40;99.90;;;;;;5111311;28;20051;-83
2021/10/22 00:49:27;;;;;;;12.32;2.28;;;7.40;99.90;;;;;;5094219;27;20054;-82
2021/10/22 00:51:53;;;;;;;13.40;2.92;;;7.50;99.90;;;;;;5077008;28;20070;-82
2021/10/22 00:54:19;;;;;;;10.65;1.70;;;7.50;99.90;;;;;;5111195;27;20047;-82
2021/10/22 00:56:48;;;;;;;12.48;2.60;;;7.50;99.90;;;;;;5076920;27;20043;-82
2021/10/22 00:59:14;;;;;;;11.40;2.50;;;7.60;99.90;;;;;;5093761;28;20055;-77
2021/10/22 01:01:40;;;;;;;14.80;2.70;;;7.60;99.90;;;;;;5093881;28;20047;-77
2021/10/22 01:04:08;;;;;;;15.85;3.08;;;7.60;99.90;;;;;;5107312;28;20050;-77
2021/10/22 01:06:38;;;;;;;9.93;2.40;;;7.60;99.90;;;;;;5096676;28;20042;-78
2021/10/22 01:09:09;;;;;;;;;;;7.60;99.90;;;;;;5106291;28;20053;-77
2021/10/22 01:11:35;;;;;;;10.57;2.55;;;7.60;99.90;;;;;;5117432;28;20440;-78
2021/10/22 01:14:05;;;;;;;12.40;2.65;;;7.60;99.90;;;;;;5107713;28;20058;-77
2021/10/22 01:16:32;;;;;;;15.98;3.03;;;7.60;99.90;;;;;;5110777;28;20063;-77
2021/10/22 01:18:58;;;;;;;14.98;2.80;;;7.60;99.90;;;;;;5093507;28;20054;-78
2021/10/22 01:21:23;;;;;;;11.88;3.03;;;7.50;99.90;;;;;;5077364;28;20327;-78
2021/10/22 01:23:50;;;;;;;11.50;2.15;;;7.50;99.90;;;;;;5093158;28;20031;-78
2021/10/22 01:26:18;;;;;;;9.98;2.22;;;7.40;99.90;;;;;;5093781;28;20054;-77
2021/10/22 01:28:44;;;;;;;12.95;3.00;;;7.40;99.90;;;;;;5092978;28;20043;-79
2021/10/22 01:31:10;;;;;;;13.43;2.85;;;7.30;99.90;;;;;;5110871;28;20411;-78
2021/10/22 01:33:38;;;;;;;13.43;2.38;;;7.30;99.90;;;;;;5110349;28;20051;-78
2021/10/22 01:36:04;;;;;;;13.10;2.58;;;7.40;99.90;;;;;;5104688;28;20047;-79
2021/10/22 01:38:30;;;;;;;11.43;2.15;;;7.20;99.90;;;;;;5101565;28;20040;-78
2021/10/22 01:40:57;;;;;;;10.65;2.10;;;7.30;99.90;;;;;;5072503;27;20074;-77
2021/10/22 01:43:24;;;;;;;15.38;2.83;;;7.20;99.90;;;;;;5093822;27;20563;-78
2021/10/22 01:45:51;;;;;;;13.35;3.17;;;7.20;99.90;;;;;;5110564;27;20050;-78
2021/10/22 01:48:17;;;;;;;11.68;2.22;;;7.20;99.90;;;;;;5097858;27;20046;-78
2021/10/22 01:50:43;;;;;;;14.18;3.40;;;7.10;99.90;;;;;;5114141;27;20051;-79
2021/10/22 01:53:11;;;;;;;11.55;2.25;;;7.20;99.90;;;;;;5097454;27;20055;-77
2021/10/22 01:55:37;;;;;;;11.98;2.80;;;7.10;99.90;;;;;;5105334;27;20045;-77
2021/10/22 01:58:03;;;;;;;11.90;2.70;;;7.10;99.90;;;;;;5074060;28;20150;-79
2021/10/22 02:00:32;;;;;;;12.02;3.00;;;7.10;99.90;;;;;;5105608;28;20056;-76
2021/10/22 02:02:58;;;;;;;14.85;2.40;;;7.10;99.90;;;;;;5079974;28;20043;-78
2021/10/22 02:05:24;;;;;;;12.05;2.88;;;7.20;99.90;;;;;;5074864;28;20039;-79
2021/10/22 02:07:49;;;;;;;11.25;2.75;;;7.20;99.90;;;;;;5109503;28;20051;-77
2021/10/22 02:10:15;;;;;;;11.27;2.55;;;7.30;99.90;;;;;;5108318;28;20043;-76
2021/10/22 02:12:41;;;;;;;9.95;2.58;;;7.30;99.90;;;;;;5090807;28;20048;-77
2021/10/22 02:15:07;;;;;;;14.90;2.70;;;7.40;99.90;;;;;;5070937;28;20051;-77
2021/10/22 02:17:33;;;;;;;12.77;2.90;;;7.40;99.90;;;;;;5106613;28;20079;-76
2021/10/22 02:19:59;;;;;;;12.40;2.28;;;7.40;99.90;;;;;;5105851;28;20736;-79
2021/10/22 02:22:25;;;;;;;11.95;2.50;;;7.40;99.90;;;;;;5106569;28;20094;-78
2021/10/22 02:24:51;;;;;;;9.02;2.35;;;7.50;99.90;;;;;;5072694;28;20048;-77
2021/10/22 02:27:17;;;;;;;10.90;2.60;;;7.50;99.90;;;;;;5072798;28;20036;-77
2021/10/22 02:29:43;;;;;;;12.65;2.50;;;7.50;99.90;;;;;;5089086;28;20040;-77
2021/10/22 02:32:08;;;;;;;15.10;3.72;;;7.50;99.90;;;;;;5089823;28;20066;-79
2021/10/22 02:34:34;;;;;;;10.48;2.20;;;7.50;99.90;;;;;;5056021;28;20052;-77
2021/10/22 02:37:00;;;;;;;14.75;3.03;;;7.50;99.90;;;;;;5105632;28;20490;-78
2021/10/22 02:39:26;;;;;;;12.35;2.65;;;7.50;99.90;;;;;;5054708;28;20071;-77
2021/10/22 02:41:52;;;;;;;9.05;2.00;;;7.50;99.90;;;;;;5105674;27;20043;-78
2021/10/22 02:44:18;;;;;;;10.90;2.80;;;7.50;99.90;;;;;;5106849;27;20100;-78
2021/10/22 02:46:44;;;;;;;13.07;2.85;;;7.50;99.90;;;;;;5139899;27;20055;-78
2021/10/22 02:49:10;;;;;;;12.63;2.35;;;7.50;99.90;;;;;;5106451;27;20054;-79
2021/10/22 02:51:36;;;;;;;11.30;2.50;;;7.50;99.90;;;;;;5089023;28;20032;-77
2021/10/22 02:54:04;;;;;;;13.10;2.85;;;7.50;99.90;;;;;;5089139;28;20040;-78
2021/10/22 02:56:30;;;;;;;11.60;2.80;;;7.50;99.90;;;;;;5106150;28;20100;-77
2021/10/22 02:58:56;;;;;;;12.25;2.60;;;7.50;99.90;;;;;;5088524;28;20126;-78
2021/10/22 03:01:22;;;;;;;11.10;2.55;;;7.50;99.90;;;;;;5094221;28;20648;-77
2021/10/22 03:03:48;;;;;;;10.80;2.80;;;7.50;99.90;;;;;;5068466;28;20039;-79
2021/10/22 03:06:14;;;;;;;14.35;2.53;;;7.50;99.90;;;;;;5105597;28;20048;-78
2021/10/22 03:08:40;;;;;;;11.52;2.70;;;7.50;99.90;;;;;;5089079;28;20128;-76
2021/10/22 03:11:06;;;;;;;11.95;2.65;;;7.50;99.90;;;;;;5104048;28;20167;-76
2021/10/22 03:13:32;;;;;;;13.65;2.70;;;7.50;99.90;;;;;;5086200;28;20127;-77
2021/10/22 03:15:58;;;;;;;8.65;2.45;;;7.60;99.90;;;;;;5053073;28;20047;-78
2021/10/22 03:18:23;;;;;;;11.60;2.92;;;7.60;99.90;;;;;;5086739;28;20043;-77
2021/10/22 03:20:49;;;;;;;12.10;2.60;;;7.60;99.90;;;;;;5086577;28;20036;-78
2021/10/22 03:23:15;;;;;;;11.35;3.05;;;7.60;99.90;;;;;;5103269;28;20036;-78
2021/10/22 03:25:41;;;;;;;15.18;3.10;;;7.60;99.90;;;;;;5069694;28;20047;-78
2021/10/22 03:28:07;;;;;;;12.60;2.70;;;7.70;99.90;;;;;;5102267;28;20039;-78
2021/10/22 03:30:37;;;;;;;13.75;2.63;;;7.70;99.90;;;;;;5084972;28;20032;-79
2021/10/22 03:33:04;;;;;;;15.13;2.60;;;7.70;99.90;;;;;;5102592;28;20044;-79
2021/10/22 03:35:30;;;;;;;11.57;2.50;;;7.70;99.90;;;;;;5106932;28;20051;-78
2021/10/22 03:37:56;;;;;;;12.93;2.90;;;7.70;99.90;;;;;;5088880;28;20039;-77
2021/10/22 03:40:23;;;;;;;11.82;2.90;;;7.80;99.90;;;;;;5085470;28;20048;-79
2021/10/22 03:42:56;;;;;;;13.85;2.45;;;7.80;99.90;;;;;;5105958;28;20039;-77
2021/10/22 03:45:22;;;;;;;9.90;2.35;;;7.80;99.90;;;;;;5106680;28;20055;-77
2021/10/22 03:47:49;;;;;;;11.13;2.40;;;7.80;99.90;;;;;;5088578;28;20505;-76
2021/10/22 03:50:17;;;;;;;13.88;2.88;;;7.90;99.90;;;;;;5089096;28;20234;-78
2021/10/22 03:52:43;;;;;;;11.52;2.60;;;7.90;99.90;;;;;;5105906;28;20122;-77
2021/10/22 03:55:10;;;;;;;14.05;3.17;;;7.90;99.90;;;;;;5085907;28;20061;-78
2021/10/22 03:57:36;;;;;;;11.38;2.83;;;7.80;99.90;;;;;;5090557;27;20040;-77
2021/10/22 04:00:05;;;;;;;14.40;3.13;;;7.80;99.90;;;;;;5109018;27;20228;-77
2021/10/22 04:02:34;;;;;;;13.95;3.22;;;7.80;99.90;;;;;;5094573;28;20087;-78
2021/10/22 04:05:03;;;;;;;15.15;3.42;;;7.80;99.90;;;;;;5095990;27;20116;-76
2021/10/22 04:07:28;;;;;;;15.13;3.03;;;7.70;99.90;;;;;;5134021;27;20382;-78
2021/10/22 04:09:54;;;;;;;12.95;2.58;;;7.70;99.90;;;;;;5055787;27;20039;-78
2021/10/22 04:12:20;;;;;;;13.32;3.65;;;7.70;99.90;;;;;;5124475;27;20612;-78
2021/10/22 04:14:46;;;;;;;10.80;2.63;;;7.70;99.90;;;;;;5124422;27;20521;-76
2021/10/22 04:17:11;;;;;;;13.25;2.90;;;7.70;99.90;;;;;;5109730;27;20626;-76
2021/10/22 04:19:39;;;;;;;16.00;3.20;;;7.70;99.90;;;;;;5072316;28;20696;-77
2021/10/22 04:22:05;;;;;;;11.75;2.63;;;7.60;99.90;;;;;;5123157;27;20047;-76
2021/10/22 04:24:30;;;;;;;11.55;2.83;;;7.70;99.90;;;;;;5072561;28;20410;-75
2021/10/22 04:26:56;;;;;;;16.45;3.03;;;7.70;99.90;;;;;;5054171;28;20135;-75
2021/10/22 04:29:22;;;;;;;15.00;3.05;;;7.60;99.90;;;;;;5055067;28;20048;-77
2021/10/22 04:31:48;;;;;;;17.50;3.25;;;7.60;99.90;;;;;;5071480;28;20046;-77
2021/10/22 04:34:14;;;;;;;13.98;3.20;;;7.60;99.90;;;;;;5057437;27;20062;-76
2021/10/22 04:36:42;;;;;;;11.32;2.58;;;7.60;99.90;;;;;;5092262;27;20051;-76
2021/10/22 04:41:52;;;;;;;15.38;2.95;;;7.60;99.90;;;;;;5136384;27;20452;-77
2021/10/22 04:44:18;;;;;;;13.50;2.95;;;7.70;99.90;;;;;;5091631;27;20047;-77
2021/10/22 04:46:44;;;;;;;13.75;3.03;;;7.70;99.90;;;;;;5090344;27;20449;-77
2021/10/22 04:49:10;;;;;;;18.83;3.40;;;7.70;99.90;;;;;;5108926;27;20047;-76
2021/10/22 04:51:36;;;;;;;14.80;3.15;;;7.70;99.90;;;;;;5088836;28;20115;-75
2021/10/22 04:54:02;;;;;;;22.55;3.20;;;7.70;99.90;;;;;;5104805;28;20505;-75
2021/10/22 04:56:30;;;;;;;15.73;3.03;;;7.70;99.90;;;;;;5122834;27;20055;-77
2021/10/22 04:58:56;;;;;;;16.08;3.22;;;7.70;99.90;;;;;;5070295;28;20048;-77
2021/10/22 05:01:22;;;;;;;14.55;2.83;;;7.80;99.90;;;;;;5088514;28;20054;-76
2021/10/22 05:03:48;;;;;;;17.50;2.53;;;7.70;99.90;;;;;;5105396;28;20093;-77
2021/10/22 05:06:14;;;;;;;12.55;2.90;;;7.70;99.90;;;;;;5108181;28;20043;-76
2021/10/22 05:08:40;;;;;;;14.52;3.88;;;7.80;99.90;;;;;;5092358;28;20043;-77
2021/10/22 05:11:06;;;;;;;14.98;3.03;;;7.70;99.90;;;;;;5075359;28;20047;-78
2021/10/22 05:13:34;;;;;;;14.00;2.65;;;7.80;99.90;;;;;;5073303;28;20127;-76
2021/10/22 05:16:00;;;;;;;15.27;3.05;;;7.80;99.90;;;;;;5095945;27;20109;-76
2021/10/22 05:18:28;;;;;;;13.18;2.53;;;7.90;99.90;;;;;;5112225;27;20073;-76
2021/10/22 05:20:53;;;;;;;14.70;2.65;;;7.90;99.90;;;;;;5074463;28;20046;-78
2021/10/22 05:23:19;;;;;;;12.80;3.05;;;7.90;99.90;;;;;;5093137;28;20138;-76
2021/10/22 05:25:45;;;;;;;10.75;2.33;;;7.90;99.90;;;;;;5128320;27;20070;-77
2021/10/22 05:28:11;;;;;;;10.70;2.20;;;7.90;99.90;;;;;;5103099;27;20054;-78
2021/10/22 05:30:37;;;;;;;14.27;2.90;;;7.90;99.90;;;;;;5083294;27;20100;-77
2021/10/22 05:33:03;;;;;;;11.75;2.17;;;8.00;99.90;;;;;;5089728;27;20055;-76
2021/10/22 05:35:29;;;;;;;15.68;3.10;;;8.00;99.90;;;;;;5102150;27;20374;-76
2021/10/22 05:37:55;;;;;;;15.75;2.63;;;8.00;99.90;;;;;;5103211;27;20439;-76
2021/10/22 05:40:21;;;;;;;12.98;2.55;;;8.10;99.90;;;;;;5126168;27;20421;-77
2021/10/22 05:42:47;;;;;;;11.15;2.78;;;8.10;99.90;;;;;;5094952;27;20794;-76
2021/10/22 05:45:12;;;;;;;17.05;3.25;;;8.10;99.90;;;;;;5062424;27;20051;-78
2021/10/22 05:47:38;;;;;;;11.15;2.30;;;8.10;99.90;;;;;;5096510;27;20076;-75
2021/10/22 05:50:05;;;;;;;12.32;2.60;;;8.20;99.90;;;;;;5095564;27;20039;-75
2021/10/22 05:52:34;;;;;;;13.77;2.83;;;8.20;99.90;;;;;;5095253;27;20444;-76
2021/10/22 05:55:00;;;;;;;11.90;2.47;;;8.30;99.90;;;;;;5107986;27;20042;-76
2021/10/22 05:57:26;;;;;;;15.63;2.58;;;8.30;99.90;;;;;;5108317;27;20047;-77
2021/10/22 05:59:51;;;;;;;13.55;2.97;;;8.30;99.90;;;;;;5139497;27;20856;-76
2021/10/22 06:02:17;;;;;;;14.88;2.70;;;8.30;99.90;;;;;;5070257;27;20079;-74
2021/10/22 06:04:44;;;;;;;13.35;2.40;;;8.30;99.90;;;;;;5100074;27;20060;-73
2021/10/22 06:07:10;;;;;;;17.42;3.22;;;8.30;99.90;;;;;;5085260;27;20042;-73
2021/10/22 06:09:35;;;;;;;13.63;2.65;;;8.30;99.90;;;;;;5090933;27;20042;-74
2021/10/22 06:12:01;;;;;;;10.55;2.88;;;8.30;99.90;;;;;;5085915;27;20080;-74
2021/10/22 06:14:28;;;;;;;12.45;2.83;;;8.30;99.90;;;;;;5138594;27;20035;-74
2021/10/22 06:16:55;;;;;;;13.85;3.30;;;8.40;99.90;;;;;;5088646;27;20144;-73
2021/10/22 06:19:27;;;;;;;15.43;3.25;;;8.40;99.90;;;;;;5101775;27;20550;-73
2021/10/22 06:24:35;;;;;;;14.40;3.20;;;8.40;99.90;;;;;;5082648;27;20058;-73
2021/10/22 06:27:04;;;;;;;13.73;3.15;;;8.40;99.90;;;;;;5100488;27;20084;-74
2021/10/22 06:29:31;;;;;;;18.70;3.95;;;8.40;99.90;;;;;;5098688;27;20042;-73
2021/10/22 06:31:57;;;;;;;15.32;2.67;;;8.30;99.90;;;;;;5103694;27;20035;-73
2021/10/22 06:34:26;;;;;;;12.82;3.10;;;8.30;99.90;;;;;;5101610;27;20055;-73
2021/10/22 06:36:52;;;;;;;15.55;2.97;;;8.30;99.90;;;;;;5066329;27;20074;-73
2021/10/22 06:39:18;;;;;;;12.07;2.97;;;8.30;99.90;;;;;;5086160;27;20060;-74
2021/10/22 06:41:44;;;;;;;15.98;4.22;;;8.30;99.90;;;;;;5105567;27;20046;-73
2021/10/22 06:44:23;;;;;;;17.02;3.55;;;8.30;99.90;;;;;;5111590;27;20066;-75
2021/10/22 06:46:49;;;;;;;16.60;3.42;;;8.40;99.90;;;;;;5112016;27;20430;-73
2021/10/22 06:49:15;;;;;;;13.40;3.25;;;8.40;99.90;;;;;;5077701;27;20035;-74
2021/10/22 06:51:41;;;;;;;16.25;3.20;;;8.40;99.90;;;;;;5061018;27;20107;-74
2021/10/22 06:54:08;;;;;;;15.55;2.60;;;8.40;99.90;;;;;;5076040;27;20509;-74
2021/10/22 06:56:34;;;;;;;17.58;3.80;;;8.50;99.90;;;;;;5094669;27;20047;-74
2021/10/22 06:58:59;;;;;;;13.52;3.13;;;8.50;99.90;;;;;;5089194;28;20051;-74
2021/10/22 07:01:25;;;;;;;13.60;3.20;;;8.50;99.90;;;;;;5073501;28;20162;-74
2021/10/22 07:03:51;;;;;;;13.63;3.10;;;8.50;99.90;;;;;;5056186;28;20032;-73
2021/10/22 07:09:04;;;;;;;13.95;3.22;;;8.50;99.90;;;;;;5107521;28;20442;-75
2021/10/22 07:11:30;;;;;;;14.27;3.30;;;8.50;99.90;;;;;;5137279;27;20048;-74
2021/10/22 07:13:57;;;;;;;14.48;3.20;;;8.60;99.90;;;;;;5097268;28;20047;-75
2021/10/22 07:16:27;;;;;;;12.45;3.20;;;8.60;99.90;;;;;;5101454;28;20058;-74
2021/10/22 07:18:53;;;;;;;13.27;3.55;;;8.60;99.90;;;;;;5101728;28;20039;-75
2021/10/22 07:21:19;;;;;;;14.18;3.00;;;8.70;99.90;;;;;;5055789;28;20035;-73
2021/10/22 07:23:48;;;;;;;12.05;3.05;;;8.80;99.90;;;;;;5104840;28;20055;-73
2021/10/22 07:26:15;;;;;;;11.32;2.65;;;8.80;99.90;;;;;;5108110;28;20066;-73
2021/10/22 07:28:41;;;;;;;11.80;2.40;;;8.90;99.90;;;;;;5085551;28;20047;-75
2021/10/22 07:31:10;;;;;;;11.45;2.30;;;8.90;99.90;;;;;;5137449;27;20032;-74
2021/10/22 07:33:40;;;;;;;11.70;2.67;;;9.00;99.90;;;;;;5071594;28;20046;-74
2021/10/22 07:36:14;;;;;;;9.77;2.00;;;9.00;99.90;;;;;;5108869;28;20516;-74
2021/10/22 07:38:42;;;;;;;11.00;1.90;;;9.00;99.90;;;;;;5086690;28;20123;-74
2021/10/22 07:41:08;;;;;;;11.40;2.33;;;9.00;99.90;;;;;;5086850;28;20067;-74
2021/10/22 07:43:35;;;;;;;11.13;2.30;;;9.00;99.90;;;;;;5085881;28;20717;-73
2021/10/22 07:46:05;;;;;;;12.77;2.55;;;9.00;99.90;;;;;;5089999;28;20040;-74
2021/10/22 07:48:32;;;;;;;12.30;2.58;;;9.10;99.90;;;;;;5088898;28;20520;-74
2021/10/22 07:50:58;;;;;;;15.52;3.08;;;9.10;99.90;;;;;;5077640;28;20093;-75
2021/10/22 07:53:24;;;;;;;16.45;3.15;;;9.10;99.90;;;;;;5102346;28;20148;-74
2021/10/22 07:55:50;;;;;;;11.25;2.95;;;9.10;99.90;;;;;;5117815;27;20361;-73
2021/10/22 07:58:16;;;;;;;17.13;4.45;;;9.10;99.90;;;;;;5089640;28;20044;-73
2021/10/22 08:00:42;;;;;;;12.10;3.00;;;9.20;99.90;;;;;;5089363;28;20043;-72
2021/10/22 08:03:08;;;;;;;18.60;3.78;;;9.10;99.90;;;;;;5089510;28;20051;-73
2021/10/22 08:05:34;;;;;;;20.70;4.05;;;9.10;99.90;;;;;;5097481;28;20032;-74
2021/10/22 08:08:01;;;;;;;14.57;3.90;;;9.10;99.90;;;;;;5070419;28;20043;-74
2021/10/22 08:10:27;;;;;;;16.38;3.83;;;9.10;99.90;;;;;;5086322;28;20482;-74
2021/10/22 08:12:53;;;;;;;15.18;3.70;;;9.10;99.90;;;;;;5089308;28;20050;-73
2021/10/22 08:15:22;;;;;;;13.88;3.10;;;9.10;99.90;;;;;;5071066;28;20044;-75
2021/10/22 08:17:47;;;;;;;15.60;3.60;;;9.20;99.90;;;;;;5105839;28;20035;-75
2021/10/22 08:20:20;;;;;;;19.67;3.72;;;9.10;99.90;;;;;;5083866;28;20380;-75
2021/10/22 08:22:50;;;;;;;14.73;3.67;;;9.10;99.90;;;;;;5068659;28;20521;-74
2021/10/22 08:25:21;;;;;;;16.10;3.70;;;9.20;99.90;;;;;;5083915;28;20043;-74
2021/10/22 08:27:50;;;;;;;18.77;4.97;;;9.10;99.90;;;;;;5097567;28;20151;-74
2021/10/22 08:30:24;;;;;;;21.92;4.07;;;9.20;99.90;;;;;;5100540;28;20039;-74
2021/10/22 08:32:51;;;;;;;15.98;3.40;;;9.10;99.90;;;;;;5096230;28;20046;-74
2021/10/22 08:35:18;;;;;;;15.77;3.50;;;9.20;99.90;;;;;;5100956;28;20039;-73
2021/10/22 08:37:44;;;;;;;18.90;3.65;;;9.20;99.90;;;;;;5117465;27;20043;-74
2021/10/22 08:40:11;;;;;;;15.02;3.28;;;9.20;99.90;;;;;;5077691;28;20126;-74
2021/10/22 08:42:38;;;;;;;14.18;2.75;;;9.20;99.90;;;;;;5085042;28;20051;-74
2021/10/22 08:45:05;;;;;;;19.33;3.88;;;9.20;99.90;;;;;;5111691;27;20040;-74
2021/10/22 08:47:32;;;;;;;17.65;3.55;;;9.20;99.90;;;;;;5081749;28;20447;-74
2021/10/22 08:50:00;;;;;;;15.50;3.47;;;9.30;99.90;;;;;;5087729;28;20078;-75
2021/10/22 08:52:30;;;;;;;17.20;3.58;;;9.40;99.90;;;;;;5106346;28;20051;-75
2021/10/22 08:55:02;;;;;;;12.80;3.17;;;9.70;99.90;;;;;;5086785;28;20405;-75
2021/10/22 08:57:28;;;;;;;14.90;4.00;;;9.70;99.90;;;;;;5106705;28;20736;-75
2021/10/22 08:59:58;;;;;;;16.20;3.40;;;9.80;99.90;;;;;;5105682;27;20046;-75
2021/10/22 09:02:25;;;;;;;14.38;3.28;;;9.80;99.90;;;;;;5101530;28;20079;-73
2021/10/22 09:04:56;;;;;;;12.63;3.38;;;9.90;99.90;;;;;;5100728;28;20043;-74
2021/10/22 09:07:47;;;;;;;23.25;4.10;;;9.90;99.90;;;;;;5089267;28;20061;-75
2021/10/22 09:10:28;;;;;;;21.73;3.97;;;9.90;99.90;;;;;;5105181;28;20130;-74
2021/10/22 09:12:56;;;;;;;17.23;3.35;;;9.80;99.90;;;;;;5097898;28;20397;-75
2021/10/22 09:15:23;;;;;;;19.63;4.38;;;9.80;99.90;;;;;;5088937;28;20054;-75
2021/10/22 09:17:50;;;;;;;18.10;3.35;;;9.70;99.90;;;;;;5100136;28;20075;-75
2021/10/22 09:20:16;;;;;;;14.13;2.55;;;9.70;99.90;;;;;;5107579;28;20039;-74
2021/10/22 09:22:53;;;;;;;8.20;2.00;;;9.70;99.90;;;;;;5109003;28;20559;-74
2021/10/22 09:25:22;;;;;;;9.63;1.92;;;9.60;99.90;;;;;;5088216;28;20136;-75
2021/10/22 09:27:57;;;;;;;6.15;1.15;;;9.50;99.90;;;;;;5103058;28;20756;-75
2021/10/22 09:30:30;;;;;;;5.97;1.10;;;9.40;99.90;;;;;;5109086;28;20047;-75
2021/10/22 09:33:05;;;;;;;9.32;1.52;;;9.20;99.90;;;;;;5092584;28;20099;-75
2021/10/22 09:35:41;;;;;;;9.30;1.55;;;9.20;99.90;;;;;;5092946;28;20125;-74
2021/10/22 09:38:27;;;;;;;9.65;1.27;;;9.20;99.90;;;;;;5105073;28;20051;-74
2021/10/22 09:41:06;;;;;;;6.93;1.65;;;9.20;99.90;;;;;;5100289;28;20081;-75
2021/10/22 09:43:37;;;;;;;13.52;2.05;;;9.10;99.90;;;;;;5092522;28;20485;-75
2021/10/22 09:46:12;;;;;;;9.73;2.00;;;9.10;99.90;;;;;;5107114;28;20413;-74
2021/10/22 09:48:41;;;;;;;8.82;2.17;;;9.10;99.90;;;;;;5118431;28;20047;-76
2021/10/22 09:51:23;;;;;;;10.57;1.90;;;9.10;99.90;;;;;;5132717;27;20097;-72
2021/10/22 09:53:49;;;;;;;8.85;2.00;;;9.10;99.90;;;;;;5088832;28;20367;-73
2021/10/22 09:56:34;;;;;;;9.15;1.90;;;9.00;99.90;;;;;;5108791;28;20062;-74
2021/10/22 09:59:06;;;;;;;8.80;2.08;;;9.00;99.90;;;;;;5090641;28;20043;-74
2021/10/22 10:01:38;;;;;;;11.75;2.70;;;9.00;99.90;;;;;;5092720;27;20047;-74
2021/10/22 10:04:08;;;;;;;9.80;2.60;;;9.00;99.90;;;;;;5141362;27;20075;-74
2021/10/22 10:06:39;;;;;;;13.18;2.55;;;9.10;99.90;;;;;;5104829;27;20097;-75
2021/10/22 10:09:07;;;;;;;;;;;9.20;99.90;;;;;;5122017;27;20051;-75
2021/10/22 10:11:34;;;;;;;14.52;3.22;;;9.20;99.90;;;;;;5117095;27;19928;-75
2021/10/22 10:14:02;;;;;;;13.38;3.35;;;9.30;99.90;;;;;;5111464;27;20111;-75
2021/10/22 10:16:34;;;;;;;17.45;3.72;;;9.30;99.90;;;;;;5093087;27;20582;-74
2021/10/22 10:19:21;;;;;;;13.95;3.45;;;9.40;99.90;;;;;;5106732;27;20485;-74
2021/10/22 10:22:15;;;;;;;14.63;3.65;;;9.50;99.90;;;;;;5089135;27;20066;-73
2021/10/22 10:24:48;;;;;;;16.92;3.72;;;9.60;99.90;;;;;;5105368;27;20550;-74
2021/10/22 10:27:21;;;;;;;14.50;4.85;;;9.70;99.90;;;;;;5094211;28;20595;-74
2021/10/22 10:29:58;;;;;;;16.63;4.53;;;9.80;99.90;;;;;;5100798;27;20398;-74
2021/10/22 10:32:26;;;;;;;17.50;4.00;;;10.00;99.90;;;;;;5096277;27;20188;-73
2021/10/22 10:35:00;;;;;;;16.08;3.97;;;10.00;99.90;;;;;;5098868;27;20039;-72
2021/10/22 10:37:50;;;;;;;7.68;1.60;;;10.10;99.90;;;;;;5104188;28;20058;-74
2021/10/22 10:40:22;;;;;;;12.27;2.10;;;10.00;99.90;;;;;;5090833;27;20051;-74
2021/10/22 10:42:56;;;;;;;8.43;2.15;;;9.90;99.90;;;;;;5113038;27;20061;-75
2021/10/22 10:45:25;;;;;;;12.85;1.95;;;9.90;99.90;;;;;;5094067;27;20055;-74
2021/10/22 10:47:53;;;;;;;11.00;2.13;;;9.80;99.90;;;;;;5119894;27;20520;-74
2021/10/22 10:51:04;;;;;;;12.82;2.42;;;9.70;99.90;;;;;;5110041;27;20118;-75
2021/10/22 10:53:43;;;;;;;;;;;9.70;99.90;;;;;;5117796;27;20063;-76
2021/10/22 10:56:34;;;;;;;15.65;2.50;;;9.60;99.90;;;;;;5125401;27;19995;-75
2021/10/22 10:59:00;;;;;;;13.20;2.20;;;9.60;99.90;;;;;;5090293;27;20500;-76
2021/10/22 11:01:34;;;;;;;13.30;2.00;;;9.60;99.90;;;;;;5090778;27;20131;-75
2021/10/22 11:04:01;;;;;;;15.65;2.38;;;9.60;99.90;;;;;;5109057;28;20142;-75
2021/10/22 11:06:35;;;;;;;14.60;2.13;;;9.80;99.90;;;;;;5094639;27;20104;-75
2021/10/22 11:09:05;;;;;;;14.70;2.28;;;9.80;99.90;;;;;;5102916;28;20047;-75
2021/10/22 11:11:36;;;;;;;18.33;2.22;;;9.90;99.90;;;;;;5109326;27;20455;-76
2021/10/22 11:14:05;;;;;;;23.33;2.58;;;9.90;99.90;;;;;;5144898;27;20054;-75
2021/10/22 11:16:48;;;;;;;13.40;2.75;;;9.90;99.90;;;;;;5112349;27;20050;-76
2021/10/22 11:19:17;;;;;;;9.82;1.92;;;10.00;99.90;;;;;;5092920;27;20128;-75
2021/10/22 11:21:47;;;;;;;16.05;2.20;;;10.00;99.90;;;;;;5111358;27;20058;-75
2021/10/22 11:24:34;;;;;;;16.98;2.97;;;10.00;99.90;;;;;;5109222;27;20505;-75
2021/10/22 11:27:04;;;;;;;14.82;2.47;;;10.00;99.90;;;;;;5092178;27;20042;-75
2021/10/22 11:29:32;;;;;;;19.70;2.45;;;10.00;99.90;;;;;;5111718;27;20042;-74
2021/10/22 11:32:03;;;;;;;16.77;2.75;;;10.00;99.90;;;;;;5089541;28;20048;-76
2021/10/22 11:34:38;;;;;;;17.92;2.38;;;10.10;99.90;;;;;;5076273;28;20148;-75
2021/10/22 11:37:14;;;;;;;16.52;2.33;;;10.10;99.90;;;;;;5091779;28;20516;-74
2021/10/22 11:39:45;;;;;;;14.02;2.47;;;10.10;99.90;;;;;;5099260;27;20051;-75
2021/10/22 11:42:26;;;;;;;16.70;2.78;;;10.20;99.90;;;;;;5086402;28;20039;-75
2021/10/22 11:44:54;;;;;;;18.02;3.03;;;10.20;99.90;;;;;;5112053;27;20133;-74
2021/10/22 11:47:22;;;;;;;16.75;2.65;;;10.30;99.90;;;;;;5094391;27;20093;-74
2021/10/22 11:49:48;;;;;;;10.68;2.25;;;10.30;99.90;;;;;;5096123;27;20183;-75
2021/10/22 11:52:18;;;;;;;19.52;2.92;;;10.50;99.90;;;;;;5111835;27;20126;-75
2021/10/22 11:54:44;;;;;;;;;;;10.50;99.90;;;;;;5112528;27;20047;-75
2021/10/22 11:57:12;;;;;;;16.90;2.42;;;10.50;99.90;;;;;;5109659;27;20313;-74
2021/10/22 11:59:47;;;;;;;13.27;1.90;;;10.40;99.90;;;;;;5108016;28;20048;-75
2021/10/22 12:02:14;;;;;;;9.00;2.53;;;10.20;99.90;;;;;;5098250;28;20040;-75
2021/10/22 12:04:42;;;;;;;7.30;1.38;;;10.10;99.90;;;;;;5087863;28;20506;-75
2021/10/22 12:07:10;;;;;;;12.88;1.83;;;10.00;99.90;;;;;;5096840;28;20036;-75
2021/10/22 12:09:39;;;;;;;10.40;1.50;;;9.90;99.90;;;;;;5091424;28;20576;-75
2021/10/22 12:12:14;;;;;;;7.88;1.00;;;9.80;99.90;;;;;;5107406;28;20070;-74
2021/10/22 12:14:48;;;;;;;9.15;1.63;;;9.80;99.90;;;;;;5075237;28;20051;-74
2021/10/22 12:17:18;;;;;;;7.55;1.10;;;9.80;99.90;;;;;;5105968;28;20078;-75
2021/10/22 12:19:46;;;;;;;8.30;1.60;;;9.60;99.90;;;;;;5098165;28;20068;-75
2021/10/22 12:22:14;;;;;;;5.88;1.30;;;9.60;99.90;;;;;;5087018;28;20052;-74
2021/10/22 12:24:47;;;;;;;10.45;1.88;;;9.60;99.90;;;;;;5086841;28;20490;-75
2021/10/22 12:27:13;;;;;;;9.45;1.52;;;9.60;99.90;;;;;;5087008;28;20036;-73
2021/10/22 12:30:15;;;;;;;8.35;1.73;;;9.60;99.90;;;;;;5087575;28;20047;-75
2021/10/22 12:32:47;;;;;;;9.00;1.70;;;9.70;99.90;;;;;;5011622;28;20057;-75
2021/10/22 12:35:13;;;;;;;7.10;1.15;;;9.70;99.90;;;;;;5097603;27;20133;-74
2021/10/22 12:38:03;;;;;;;12.98;1.60;;;9.70;99.90;;;;;;5087661;28;20064;-75
2021/10/22 12:40:50;;;;;;;8.38;1.80;;;9.80;99.90;;;;;;5108297;27;20073;-76
2021/10/22 12:43:29;;;;;;;8.95;1.70;;;9.90;99.90;;;;;;5107151;28;20134;-75
2021/10/22 12:45:55;;;;;;;7.45;1.42;;;10.00;99.90;;;;;;5107245;28;20047;-75
2021/10/22 12:48:30;;;;;;;8.27;1.75;;;10.00;99.90;;;;;;5088335;28;20054;-75
2021/10/22 12:51:08;;;;;;;8.68;1.25;;;10.00;99.90;;;;;;5069688;28;20040;-76
2021/10/22 12:53:38;;;;;;;11.63;1.55;;;10.10;99.90;;;;;;5103444;28;20052;-75
2021/10/22 12:56:11;;;;;;;8.57;1.50;;;10.10;99.90;;;;;;5090326;28;20052;-74
2021/10/22 12:58:39;;;;;;;9.63;1.38;;;10.10;99.90;;;;;;5086663;28;20306;-75
2021/10/22 13:01:15;;;;;;;12.30;1.92;;;10.20;99.90;;;;;;5086710;28;20047;-76
2021/10/22 13:04:00;;;;;;;10.93;1.55;;;10.30;99.90;;;;;;5087648;28;20040;-75